sensor_id;sensor_type;location;lat;lon;timestamp;temperature;humidity
39849;DHT22;25518;47.878;15.914;2023-07-09T00:01:17;15.90;99.90
39849;DHT22;25518;47.878;15.914;2023-07-09T00:04:10;15.70;99.90
39849;DHT22;25518;47.878;15.914;2023-07-09T00:07:02;15.70;99.90
39849;DHT22;25518;47.878;15.914;2023-07-09T00:09:53;15.80;99.90
39849;DHT22;25518;47.878;15.914;2023-07-09T00:12:44;15.80;99.90
39849;DHT22;25518;47.878;15.914;2023-07-09T00:15:34;15.70;99.90
39849;DHT22;25518;47.878;15.914;2023-07-09T00:18:23;15.70;99.90
39849;DHT22;25518;47.878;15.914;2023-07-09T00:21:13;15.60;99.90
39849;DHT22;25518;47.878;15.914;2023-07-09T00:24:03;15.40;99.90
39849;DHT22;25518;47.878;15.914;2023-07-09T00:26:54;15.40;99.90
39849;DHT22;25518;47.878;15.914;2023-07-09T00:29:44;15.40;99.90
39849;DHT22;25518;47.878;15.914;2023-07-09T00:32:33;15.50;99.90
39849;DHT22;25518;47.878;15.914;2023-07-09T00:35:32;15.30;99.90
39849;DHT22;25518;47.878;15.914;2023-07-09T00:38:22;15.30;99.90
39849;DHT22;25518;47.878;15.914;2023-07-09T00:41:16;15.30;99.90
39849;DHT22;25518;47.878;15.914;2023-07-09T00:47:18;15.40;99.90
39849;DHT22;25518;47.878;15.914;2023-07-09T00:53:15;15.40;99.90
39849;DHT22;25518;47.878;15.914;2023-07-09T00:56:13;15.30;99.90
39849;DHT22;25518;47.878;15.914;2023-07-09T00:59:07;15.10;99.90
39849;DHT22;25518;47.878;15.914;2023-07-09T01:01:58;15.20;99.90
39849;DHT22;25518;47.878;15.914;2023-07-09T01:04:52;15.20;99.90
39849;DHT22;25518;47.878;15.914;2023-07-09T01:07:44;15.30;99.90
39849;DHT22;25518;47.878;15.914;2023-07-09T01:10:35;15.30;99.90
39849;DHT22;25518;47.878;15.914;2023-07-09T01:13:26;15.10;99.90
39849;DHT22;25518;47.878;15.914;2023-07-09T01:16:18;15.10;99.90
39849;DHT22;25518;47.878;15.914;2023-07-09T01:19:10;15.10;99.90
39849;DHT22;25518;47.878;15.914;2023-07-09T01:22:03;15.20;99.90
39849;DHT22;25518;47.878;15.914;2023-07-09T01:27:46;15.20;99.90
39849;DHT22;25518;47.878;15.914;2023-07-09T01:30:38;15.10;99.90
39849;DHT22;25518;47.878;15.914;2023-07-09T01:33:28;12.80;99.90
39849;DHT22;25518;47.878;15.914;2023-07-09T01:36:20;15.10;99.90
39849;DHT22;25518;47.878;15.914;2023-07-09T01:39:11;14.90;99.90
39849;DHT22;25518;47.878;15.914;2023-07-09T01:42:02;14.80;99.90
39849;DHT22;25518;47.878;15.914;2023-07-09T01:44:53;14.80;99.90
39849;DHT22;25518;47.878;15.914;2023-07-09T01:47:43;14.80;99.90
39849;DHT22;25518;47.878;15.914;2023-07-09T01:50:33;14.60;99.90
39849;DHT22;25518;47.878;15.914;2023-07-09T01:53:25;14.70;99.90
39849;DHT22;25518;47.878;15.914;2023-07-09T01:56:16;14.50;99.90
39849;DHT22;25518;47.878;15.914;2023-07-09T01:59:05;14.60;99.90
39849;DHT22;25518;47.878;15.914;2023-07-09T02:01:56;14.70;99.90
39849;DHT22;25518;47.878;15.914;2023-07-09T02:04:50;14.50;99.90
39849;DHT22;25518;47.878;15.914;2023-07-09T02:07:40;14.60;99.90
39849;DHT22;25518;47.878;15.914;2023-07-09T02:10:29;14.10;99.90
39849;DHT22;25518;47.878;15.914;2023-07-09T02:13:19;14.70;99.90
39849;DHT22;25518;47.878;15.914;2023-07-09T02:16:08;14.70;99.90
39849;DHT22;25518;47.878;15.914;2023-07-09T02:18:58;14.70;99.90
39849;DHT22;25518;47.878;15.914;2023-07-09T02:21:48;14.70;99.90
39849;DHT22;25518;47.878;15.914;2023-07-09T02:24:38;14.60;99.90
39849;DHT22;25518;47.878;15.914;2023-07-09T02:27:28;14.60;99.90
39849;DHT22;25518;47.878;15.914;2023-07-09T02:30:18;14.80;99.90
39849;DHT22;25518;47.878;15.914;2023-07-09T02:33:07;14.80;99.90
39849;DHT22;25518;47.878;15.914;2023-07-09T02:35:57;14.70;99.90
39849;DHT22;25518;47.878;15.914;2023-07-09T02:38:46;14.70;99.90
39849;DHT22;25518;47.878;15.914;2023-07-09T02:41:36;14.60;99.90
39849;DHT22;25518;47.878;15.914;2023-07-09T02:44:26;14.30;99.90
39849;DHT22;25518;47.878;15.914;2023-07-09T02:47:16;14.50;99.90
39849;DHT22;25518;47.878;15.914;2023-07-09T02:50:06;12.10;99.90
39849;DHT22;25518;47.878;15.914;2023-07-09T02:52:55;14.20;99.90
39849;DHT22;25518;47.878;15.914;2023-07-09T02:55:45;14.20;99.90
39849;DHT22;25518;47.878;15.914;2023-07-09T02:58:35;14.10;99.90
39849;DHT22;25518;47.878;15.914;2023-07-09T03:18:20;13.20;99.90
39849;DHT22;25518;47.878;15.914;2023-07-09T03:21:10;14.00;99.90
39849;DHT22;25518;47.878;15.914;2023-07-09T03:23:59;13.80;99.90
39849;DHT22;25518;47.878;15.914;2023-07-09T03:26:49;12.60;99.90
39849;DHT22;25518;47.878;15.914;2023-07-09T03:29:39;13.90;99.90
39849;DHT22;25518;47.878;15.914;2023-07-09T03:32:29;13.90;99.90
39849;DHT22;25518;47.878;15.914;2023-07-09T03:35:19;14.00;99.90
39849;DHT22;25518;47.878;15.914;2023-07-09T03:38:10;14.10;99.90
39849;DHT22;25518;47.878;15.914;2023-07-09T03:41:00;14.00;99.90
39849;DHT22;25518;47.878;15.914;2023-07-09T03:43:49;14.10;99.90
39849;DHT22;25518;47.878;15.914;2023-07-09T03:46:42;14.10;99.90
39849;DHT22;25518;47.878;15.914;2023-07-09T03:49:32;14.20;99.90
39849;DHT22;25518;47.878;15.914;2023-07-09T03:52:22;14.30;99.90
39849;DHT22;25518;47.878;15.914;2023-07-09T03:55:12;14.30;99.90
39849;DHT22;25518;47.878;15.914;2023-07-09T03:58:02;14.30;99.90
39849;DHT22;25518;47.878;15.914;2023-07-09T04:00:52;14.30;99.90
39849;DHT22;25518;47.878;15.914;2023-07-09T04:03:44;14.40;99.90
39849;DHT22;25518;47.878;15.914;2023-07-09T04:06:33;14.40;99.90
39849;DHT22;25518;47.878;15.914;2023-07-09T04:09:23;14.40;99.90
39849;DHT22;25518;47.878;15.914;2023-07-09T04:12:13;14.30;99.90
39849;DHT22;25518;47.878;15.914;2023-07-09T04:15:03;14.30;99.90
39849;DHT22;25518;47.878;15.914;2023-07-09T04:17:54;14.30;99.90
39849;DHT22;25518;47.878;15.914;2023-07-09T04:20:48;14.40;99.90
39849;DHT22;25518;47.878;15.914;2023-07-09T04:23:38;14.50;99.90
39849;DHT22;25518;47.878;15.914;2023-07-09T04:26:28;14.50;99.90
39849;DHT22;25518;47.878;15.914;2023-07-09T04:29:18;14.40;99.90
39849;DHT22;25518;47.878;15.914;2023-07-09T04:32:12;11.70;99.90
39849;DHT22;25518;47.878;15.914;2023-07-09T04:35:03;14.70;99.90
39849;DHT22;25518;47.878;15.914;2023-07-09T04:37:55;14.60;99.90
39849;DHT22;25518;47.878;15.914;2023-07-09T04:40:46;14.60;99.90
39849;DHT22;25518;47.878;15.914;2023-07-09T04:43:36;14.70;99.90
39849;DHT22;25518;47.878;15.914;2023-07-09T04:46:26;14.80;99.90
39849;DHT22;25518;47.878;15.914;2023-07-09T04:49:15;14.60;99.90
39849;DHT22;25518;47.878;15.914;2023-07-09T04:52:05;14.60;99.90
39849;DHT22;25518;47.878;15.914;2023-07-09T04:54:55;14.60;99.90
39849;DHT22;25518;47.878;15.914;2023-07-09T04:57:46;14.80;99.90
39849;DHT22;25518;47.878;15.914;2023-07-09T05:00:35;14.80;99.90
39849;DHT22;25518;47.878;15.914;2023-07-09T05:03:26;14.80;99.90
39849;DHT22;25518;47.878;15.914;2023-07-09T05:06:16;14.80;99.90
39849;DHT22;25518;47.878;15.914;2023-07-09T05:09:06;14.90;99.90
39849;DHT22;25518;47.878;15.914;2023-07-09T05:11:55;15.10;99.90
39849;DHT22;25518;47.878;15.914;2023-07-09T05:14:45;13.70;99.90
39849;DHT22;25518;47.878;15.914;2023-07-09T05:17:35;15.10;99.90
39849;DHT22;25518;47.878;15.914;2023-07-09T05:20:24;15.20;99.90
39849;DHT22;25518;47.878;15.914;2023-07-09T05:23:14;15.30;99.90
39849;DHT22;25518;47.878;15.914;2023-07-09T05:26:04;15.40;99.90
39849;DHT22;25518;47.878;15.914;2023-07-09T05:28:54;15.60;99.90
39849;DHT22;25518;47.878;15.914;2023-07-09T05:31:46;15.40;99.90
39849;DHT22;25518;47.878;15.914;2023-07-09T05:34:35;15.50;99.90
39849;DHT22;25518;47.878;15.914;2023-07-09T05:37:25;15.60;99.90
39849;DHT22;25518;47.878;15.914;2023-07-09T05:40:15;15.60;99.90
39849;DHT22;25518;47.878;15.914;2023-07-09T05:43:04;15.80;99.90
39849;DHT22;25518;47.878;15.914;2023-07-09T05:45:54;15.80;99.90
39849;DHT22;25518;47.878;15.914;2023-07-09T05:48:44;15.90;99.90
39849;DHT22;25518;47.878;15.914;2023-07-09T05:51:33;16.00;99.90
39849;DHT22;25518;47.878;15.914;2023-07-09T05:54:23;16.20;99.90
39849;DHT22;25518;47.878;15.914;2023-07-09T05:57:13;16.10;99.90
39849;DHT22;25518;47.878;15.914;2023-07-09T06:00:03;16.10;99.90
39849;DHT22;25518;47.878;15.914;2023-07-09T06:02:53;16.00;99.90
39849;DHT22;25518;47.878;15.914;2023-07-09T06:05:42;16.20;99.90
39849;DHT22;25518;47.878;15.914;2023-07-09T06:08:32;16.20;99.90
39849;DHT22;25518;47.878;15.914;2023-07-09T06:11:22;16.20;99.90
39849;DHT22;25518;47.878;15.914;2023-07-09T06:14:12;16.20;99.90
39849;DHT22;25518;47.878;15.914;2023-07-09T06:17:02;16.30;99.90
39849;DHT22;25518;47.878;15.914;2023-07-09T06:19:51;16.40;99.90
39849;DHT22;25518;47.878;15.914;2023-07-09T06:22:41;16.50;99.90
39849;DHT22;25518;47.878;15.914;2023-07-09T06:25:30;16.60;99.90
39849;DHT22;25518;47.878;15.914;2023-07-09T06:28:22;16.70;99.90
39849;DHT22;25518;47.878;15.914;2023-07-09T06:31:13;16.80;99.90
39849;DHT22;25518;47.878;15.914;2023-07-09T06:34:03;17.00;99.90
39849;DHT22;25518;47.878;15.914;2023-07-09T06:36:52;16.30;99.90
39849;DHT22;25518;47.878;15.914;2023-07-09T06:39:42;17.10;99.90
39849;DHT22;25518;47.878;15.914;2023-07-09T06:42:32;17.30;99.90
39849;DHT22;25518;47.878;15.914;2023-07-09T06:45:22;17.50;99.90
39849;DHT22;25518;47.878;15.914;2023-07-09T06:48:11;17.70;99.90
39849;DHT22;25518;47.878;15.914;2023-07-09T06:51:01;17.70;99.90
39849;DHT22;25518;47.878;15.914;2023-07-09T06:53:51;17.90;99.90
39849;DHT22;25518;47.878;15.914;2023-07-09T06:56:41;18.00;99.90
39849;DHT22;25518;47.878;15.914;2023-07-09T06:59:31;18.10;99.90
39849;DHT22;25518;47.878;15.914;2023-07-09T07:02:21;18.30;99.90
39849;DHT22;25518;47.878;15.914;2023-07-09T07:05:11;18.40;99.90
39849;DHT22;25518;47.878;15.914;2023-07-09T07:08:02;18.60;99.90
39849;DHT22;25518;47.878;15.914;2023-07-09T07:10:58;18.60;99.90
39849;DHT22;25518;47.878;15.914;2023-07-09T07:13:52;18.80;99.90
39849;DHT22;25518;47.878;15.914;2023-07-09T07:16:41;19.00;99.90
39849;DHT22;25518;47.878;15.914;2023-07-09T07:19:31;19.20;99.90
39849;DHT22;25518;47.878;15.914;2023-07-09T07:22:21;19.30;99.90
39849;DHT22;25518;47.878;15.914;2023-07-09T07:25:11;19.40;99.90
39849;DHT22;25518;47.878;15.914;2023-07-09T07:28:01;19.60;99.90
39849;DHT22;25518;47.878;15.914;2023-07-09T07:31:09;19.80;99.90
39849;DHT22;25518;47.878;15.914;2023-07-09T07:33:59;20.00;99.90
39849;DHT22;25518;47.878;15.914;2023-07-09T07:36:50;20.20;99.90
39849;DHT22;25518;47.878;15.914;2023-07-09T07:39:39;20.30;99.90
39849;DHT22;25518;47.878;15.914;2023-07-09T07:42:30;20.50;99.90
39849;DHT22;25518;47.878;15.914;2023-07-09T07:45:21;20.60;99.90
39849;DHT22;25518;47.878;15.914;2023-07-09T07:48:11;20.90;99.90
39849;DHT22;25518;47.878;15.914;2023-07-09T07:51:02;21.00;99.90
39849;DHT22;25518;47.878;15.914;2023-07-09T07:53:52;21.20;99.90
39849;DHT22;25518;47.878;15.914;2023-07-09T07:56:42;21.30;99.90
39849;DHT22;25518;47.878;15.914;2023-07-09T07:59:32;21.60;99.90
39849;DHT22;25518;47.878;15.914;2023-07-09T08:02:24;21.80;99.90
39849;DHT22;25518;47.878;15.914;2023-07-09T08:05:14;22.00;99.90
39849;DHT22;25518;47.878;15.914;2023-07-09T08:08:03;22.20;99.90
39849;DHT22;25518;47.878;15.914;2023-07-09T08:11:01;22.30;99.90
39849;DHT22;25518;47.878;15.914;2023-07-09T08:13:54;22.70;99.90
39849;DHT22;25518;47.878;15.914;2023-07-09T08:16:43;23.10;99.90
39849;DHT22;25518;47.878;15.914;2023-07-09T08:19:52;23.40;99.90
39849;DHT22;25518;47.878;15.914;2023-07-09T08:22:43;23.80;99.90
39849;DHT22;25518;47.878;15.914;2023-07-09T08:25:33;24.20;99.90
39849;DHT22;25518;47.878;15.914;2023-07-09T08:28:23;24.50;99.90
39849;DHT22;25518;47.878;15.914;2023-07-09T08:31:13;24.60;99.90
39849;DHT22;25518;47.878;15.914;2023-07-09T08:34:04;24.90;99.90
39849;DHT22;25518;47.878;15.914;2023-07-09T08:36:54;25.00;99.90
39849;DHT22;25518;47.878;15.914;2023-07-09T08:39:44;25.20;99.90
39849;DHT22;25518;47.878;15.914;2023-07-09T08:42:42;25.50;99.90
39849;DHT22;25518;47.878;15.914;2023-07-09T08:45:40;25.80;99.90
39849;DHT22;25518;47.878;15.914;2023-07-09T08:48:34;26.00;99.90
39849;DHT22;25518;47.878;15.914;2023-07-09T08:51:27;26.30;99.90
39849;DHT22;25518;47.878;15.914;2023-07-09T08:54:29;26.30;99.90
39849;DHT22;25518;47.878;15.914;2023-07-09T08:57:25;26.50;99.90
39849;DHT22;25518;47.878;15.914;2023-07-09T09:00:27;26.60;99.90
39849;DHT22;25518;47.878;15.914;2023-07-09T09:06:25;26.90;99.90
39849;DHT22;25518;47.878;15.914;2023-07-09T09:09:19;27.20;99.90
39849;DHT22;25518;47.878;15.914;2023-07-09T09:12:28;27.40;99.90
39849;DHT22;25518;47.878;15.914;2023-07-09T09:15:20;27.50;99.20
39849;DHT22;25518;47.878;15.914;2023-07-09T09:18:19;27.70;98.80
39849;DHT22;25518;47.878;15.914;2023-07-09T09:27:14;27.90;97.50
39849;DHT22;25518;47.878;15.914;2023-07-09T09:30:17;26.40;94.60
39849;DHT22;25518;47.878;15.914;2023-07-09T09:33:09;27.70;94.00
39849;DHT22;25518;47.878;15.914;2023-07-09T09:36:03;27.20;92.90
39849;DHT22;25518;47.878;15.914;2023-07-09T09:38:53;27.20;95.00
39849;DHT22;25518;47.878;15.914;2023-07-09T09:41:44;27.40;95.90
39849;DHT22;25518;47.878;15.914;2023-07-09T09:44:34;27.80;94.80
39849;DHT22;25518;47.878;15.914;2023-07-09T09:47:26;27.90;94.90
39849;DHT22;25518;47.878;15.914;2023-07-09T09:50:20;28.10;94.80
39849;DHT22;25518;47.878;15.914;2023-07-09T09:53:20;28.10;93.00
39849;DHT22;25518;47.878;15.914;2023-07-09T09:56:17;28.30;90.80
39849;DHT22;25518;47.878;15.914;2023-07-09T09:59:18;28.40;90.90
39849;DHT22;25518;47.878;15.914;2023-07-09T10:02:19;28.60;91.50
39849;DHT22;25518;47.878;15.914;2023-07-09T10:05:15;28.70;88.30
39849;DHT22;25518;47.878;15.914;2023-07-09T10:08:09;28.40;90.70
39849;DHT22;25518;47.878;15.914;2023-07-09T10:11:12;27.80;91.40
39849;DHT22;25518;47.878;15.914;2023-07-09T10:17:27;27.40;88.60
39849;DHT22;25518;47.878;15.914;2023-07-09T10:20:51;27.40;89.10
39849;DHT22;25518;47.878;15.914;2023-07-09T10:23:36;27.80;93.40
39849;DHT22;25518;47.878;15.914;2023-07-09T10:26:34;27.80;85.80
39849;DHT22;25518;47.878;15.914;2023-07-09T10:30:03;28.00;86.40
39849;DHT22;25518;47.878;15.914;2023-07-09T10:33:13;28.20;90.00
39849;DHT22;25518;47.878;15.914;2023-07-09T10:39:20;28.50;88.30
39849;DHT22;25518;47.878;15.914;2023-07-09T10:42:35;28.20;87.50
39849;DHT22;25518;47.878;15.914;2023-07-09T10:45:30;27.80;88.80
39849;DHT22;25518;47.878;15.914;2023-07-09T10:48:40;27.60;88.70
39849;DHT22;25518;47.878;15.914;2023-07-09T10:51:36;27.50;90.60
39849;DHT22;25518;47.878;15.914;2023-07-09T10:54:33;27.20;93.90
39849;DHT22;25518;47.878;15.914;2023-07-09T10:57:30;27.10;90.70
39849;DHT22;25518;47.878;15.914;2023-07-09T11:00:23;27.60;88.70
39849;DHT22;25518;47.878;15.914;2023-07-09T11:03:21;28.10;79.80
39849;DHT22;25518;47.878;15.914;2023-07-09T11:06:19;28.70;81.60
39849;DHT22;25518;47.878;15.914;2023-07-09T11:09:22;29.30;82.90
39849;DHT22;25518;47.878;15.914;2023-07-09T11:12:19;29.20;78.80
39849;DHT22;25518;47.878;15.914;2023-07-09T11:15:28;29.50;84.50
39849;DHT22;25518;47.878;15.914;2023-07-09T11:18:26;29.50;83.10
39849;DHT22;25518;47.878;15.914;2023-07-09T11:21:17;29.40;76.60
39849;DHT22;25518;47.878;15.914;2023-07-09T11:24:31;29.20;76.80
39849;DHT22;25518;47.878;15.914;2023-07-09T11:27:25;29.20;78.80
39849;DHT22;25518;47.878;15.914;2023-07-09T11:33:29;29.10;77.70
39849;DHT22;25518;47.878;15.914;2023-07-09T11:36:28;29.40;86.30
39849;DHT22;25518;47.878;15.914;2023-07-09T11:42:31;29.80;77.10
39849;DHT22;25518;47.878;15.914;2023-07-09T11:45:27;29.90;78.60
39849;DHT22;25518;47.878;15.914;2023-07-09T11:51:17;29.10;83.30
39849;DHT22;25518;47.878;15.914;2023-07-09T11:54:11;29.60;81.90
39849;DHT22;25518;47.878;15.914;2023-07-09T11:57:02;29.70;81.40
39849;DHT22;25518;47.878;15.914;2023-07-09T11:59:52;28.90;78.90
39849;DHT22;25518;47.878;15.914;2023-07-09T12:02:42;29.90;76.20
39849;DHT22;25518;47.878;15.914;2023-07-09T12:05:32;29.90;77.30
39849;DHT22;25518;47.878;15.914;2023-07-09T12:08:27;29.90;75.70
39849;DHT22;25518;47.878;15.914;2023-07-09T12:11:28;30.00;73.50
39849;DHT22;25518;47.878;15.914;2023-07-09T12:14:21;30.00;74.00
39849;DHT22;25518;47.878;15.914;2023-07-09T12:17:12;30.10;76.70
39849;DHT22;25518;47.878;15.914;2023-07-09T12:20:01;28.00;75.30
39849;DHT22;25518;47.878;15.914;2023-07-09T12:22:53;29.30;76.50
39849;DHT22;25518;47.878;15.914;2023-07-09T12:25:48;29.50;77.00
39849;DHT22;25518;47.878;15.914;2023-07-09T12:28:38;28.60;77.50
39849;DHT22;25518;47.878;15.914;2023-07-09T12:31:30;28.50;78.80
39849;DHT22;25518;47.878;15.914;2023-07-09T12:34:20;28.90;77.60
39849;DHT22;25518;47.878;15.914;2023-07-09T12:37:14;29.30;77.20
39849;DHT22;25518;47.878;15.914;2023-07-09T12:40:14;29.70;74.80
39849;DHT22;25518;47.878;15.914;2023-07-09T12:43:05;29.90;81.20
39849;DHT22;25518;47.878;15.914;2023-07-09T12:45:58;30.00;77.80
39849;DHT22;25518;47.878;15.914;2023-07-09T12:48:48;30.10;73.30
39849;DHT22;25518;47.878;15.914;2023-07-09T12:51:39;30.30;74.00
39849;DHT22;25518;47.878;15.914;2023-07-09T12:54:30;30.60;75.70
39849;DHT22;25518;47.878;15.914;2023-07-09T12:57:20;30.60;77.10
39849;DHT22;25518;47.878;15.914;2023-07-09T13:00:14;29.00;73.00
39849;DHT22;25518;47.878;15.914;2023-07-09T13:03:13;30.60;74.40
39849;DHT22;25518;47.878;15.914;2023-07-09T13:06:05;30.60;76.30
39849;DHT22;25518;47.878;15.914;2023-07-09T13:08:58;30.30;74.90
39849;DHT22;25518;47.878;15.914;2023-07-09T13:11:48;30.30;71.10
39849;DHT22;25518;47.878;15.914;2023-07-09T13:14:38;30.40;73.60
39849;DHT22;25518;47.878;15.914;2023-07-09T13:17:30;30.40;72.20
39849;DHT22;25518;47.878;15.914;2023-07-09T13:20:20;30.50;72.30
39849;DHT22;25518;47.878;15.914;2023-07-09T13:23:13;30.60;69.40
39849;DHT22;25518;47.878;15.914;2023-07-09T13:26:03;30.40;71.40
39849;DHT22;25518;47.878;15.914;2023-07-09T13:28:53;30.50;71.70
39849;DHT22;25518;47.878;15.914;2023-07-09T13:31:43;30.60;75.20
39849;DHT22;25518;47.878;15.914;2023-07-09T13:34:34;30.10;71.90
39849;DHT22;25518;47.878;15.914;2023-07-09T13:37:24;30.10;73.30
39849;DHT22;25518;47.878;15.914;2023-07-09T13:40:15;30.20;71.70
39849;DHT22;25518;47.878;15.914;2023-07-09T13:43:11;30.20;72.30
39849;DHT22;25518;47.878;15.914;2023-07-09T13:46:03;30.30;75.10
39849;DHT22;25518;47.878;15.914;2023-07-09T13:48:53;30.30;73.10
39849;DHT22;25518;47.878;15.914;2023-07-09T13:51:45;30.50;70.20
39849;DHT22;25518;47.878;15.914;2023-07-09T13:54:36;30.50;70.00
39849;DHT22;25518;47.878;15.914;2023-07-09T13:57:27;28.50;69.40
39849;DHT22;25518;47.878;15.914;2023-07-09T14:00:17;30.60;76.60
39849;DHT22;25518;47.878;15.914;2023-07-09T14:03:17;28.30;71.30
39849;DHT22;25518;47.878;15.914;2023-07-09T14:06:12;30.80;74.50
39849;DHT22;25518;47.878;15.914;2023-07-09T14:09:02;30.90;71.60
39849;DHT22;25518;47.878;15.914;2023-07-09T14:11:53;30.70;70.20
39849;DHT22;25518;47.878;15.914;2023-07-09T14:14:42;30.70;70.80
39849;DHT22;25518;47.878;15.914;2023-07-09T14:17:34;30.60;69.10
39849;DHT22;25518;47.878;15.914;2023-07-09T14:20:24;30.60;68.50
39849;DHT22;25518;47.878;15.914;2023-07-09T14:23:17;30.40;70.40
39849;DHT22;25518;47.878;15.914;2023-07-09T14:26:10;30.50;70.00
39849;DHT22;25518;47.878;15.914;2023-07-09T14:28:59;30.30;67.80
39849;DHT22;25518;47.878;15.914;2023-07-09T14:31:50;30.40;71.50
39849;DHT22;25518;47.878;15.914;2023-07-09T14:34:39;30.20;69.90
39849;DHT22;25518;47.878;15.914;2023-07-09T14:37:29;30.30;68.90
39849;DHT22;25518;47.878;15.914;2023-07-09T14:40:20;30.10;73.50
39849;DHT22;25518;47.878;15.914;2023-07-09T14:43:11;30.30;69.70
39849;DHT22;25518;47.878;15.914;2023-07-09T14:46:01;30.50;70.90
39849;DHT22;25518;47.878;15.914;2023-07-09T14:48:51;27.80;69.40
39849;DHT22;25518;47.878;15.914;2023-07-09T14:51:42;30.80;70.50
39849;DHT22;25518;47.878;15.914;2023-07-09T14:54:32;30.90;69.40
39849;DHT22;25518;47.878;15.914;2023-07-09T14:57:24;30.40;72.60
39849;DHT22;25518;47.878;15.914;2023-07-09T15:00:17;31.10;71.20
39849;DHT22;25518;47.878;15.914;2023-07-09T15:03:09;31.10;70.10
39849;DHT22;25518;47.878;15.914;2023-07-09T15:06:00;31.00;73.50
39849;DHT22;25518;47.878;15.914;2023-07-09T15:08:52;30.90;68.10
39849;DHT22;25518;47.878;15.914;2023-07-09T15:11:41;30.80;70.20
39849;DHT22;25518;47.878;15.914;2023-07-09T15:14:33;30.60;69.50
39849;DHT22;25518;47.878;15.914;2023-07-09T15:17:23;28.40;68.00
39849;DHT22;25518;47.878;15.914;2023-07-09T15:20:15;30.80;68.80
39849;DHT22;25518;47.878;15.914;2023-07-09T15:23:05;30.90;67.90
39849;DHT22;25518;47.878;15.914;2023-07-09T15:25:55;30.90;67.50
39849;DHT22;25518;47.878;15.914;2023-07-09T15:28:44;28.50;66.60
39849;DHT22;25518;47.878;15.914;2023-07-09T15:31:38;30.50;69.30
39849;DHT22;25518;47.878;15.914;2023-07-09T15:34:28;30.50;71.60
39849;DHT22;25518;47.878;15.914;2023-07-09T15:37:18;29.80;67.10
39849;DHT22;25518;47.878;15.914;2023-07-09T15:40:20;30.00;70.50
39849;DHT22;25518;47.878;15.914;2023-07-09T15:43:10;30.80;70.60
39849;DHT22;25518;47.878;15.914;2023-07-09T15:45:59;30.90;68.00
39849;DHT22;25518;47.878;15.914;2023-07-09T15:48:51;30.70;67.80
39849;DHT22;25518;47.878;15.914;2023-07-09T15:51:41;30.70;70.90
39849;DHT22;25518;47.878;15.914;2023-07-09T15:54:30;30.70;70.20
39849;DHT22;25518;47.878;15.914;2023-07-09T15:57:20;30.70;72.00
39849;DHT22;25518;47.878;15.914;2023-07-09T16:00:16;30.80;70.90
39849;DHT22;25518;47.878;15.914;2023-07-09T16:03:09;30.80;70.40
39849;DHT22;25518;47.878;15.914;2023-07-09T16:05:58;31.10;71.00
39849;DHT22;25518;47.878;15.914;2023-07-09T16:08:48;30.90;69.10
39849;DHT22;25518;47.878;15.914;2023-07-09T16:11:38;30.60;72.10
39849;DHT22;25518;47.878;15.914;2023-07-09T16:14:32;30.40;73.10
39849;DHT22;25518;47.878;15.914;2023-07-09T16:17:22;30.30;76.10
39849;DHT22;25518;47.878;15.914;2023-07-09T16:20:18;30.30;75.10
39849;DHT22;25518;47.878;15.914;2023-07-09T16:23:18;30.20;75.10
39849;DHT22;25518;47.878;15.914;2023-07-09T16:26:09;30.20;74.80
39849;DHT22;25518;47.878;15.914;2023-07-09T16:28:59;30.10;71.30
39849;DHT22;25518;47.878;15.914;2023-07-09T16:31:52;30.20;73.20
39849;DHT22;25518;47.878;15.914;2023-07-09T16:34:42;30.10;73.30
39849;DHT22;25518;47.878;15.914;2023-07-09T16:37:32;30.00;74.40
39849;DHT22;25518;47.878;15.914;2023-07-09T16:40:25;30.00;74.30
39849;DHT22;25518;47.878;15.914;2023-07-09T16:43:17;30.10;74.70
39849;DHT22;25518;47.878;15.914;2023-07-09T16:46:16;29.90;71.30
39849;DHT22;25518;47.878;15.914;2023-07-09T16:55:07;29.80;79.70
39849;DHT22;25518;47.878;15.914;2023-07-09T16:57:58;29.70;75.20
39849;DHT22;25518;47.878;15.914;2023-07-09T17:00:48;29.50;78.20
39849;DHT22;25518;47.878;15.914;2023-07-09T17:03:38;29.40;79.50
39849;DHT22;25518;47.878;15.914;2023-07-09T17:06:27;29.60;81.80
39849;DHT22;25518;47.878;15.914;2023-07-09T17:09:18;30.00;80.30
39849;DHT22;25518;47.878;15.914;2023-07-09T17:12:10;30.40;79.80
39849;DHT22;25518;47.878;15.914;2023-07-09T17:15:38;30.90;82.70
39849;DHT22;25518;47.878;15.914;2023-07-09T17:18:26;31.40;80.20
39849;DHT22;25518;47.878;15.914;2023-07-09T17:21:17;31.60;78.90
39849;DHT22;25518;47.878;15.914;2023-07-09T17:24:19;31.60;77.70
39849;DHT22;25518;47.878;15.914;2023-07-09T17:27:10;33.00;76.00
39849;DHT22;25518;47.878;15.914;2023-07-09T17:30:01;31.60;75.90
39849;DHT22;25518;47.878;15.914;2023-07-09T17:32:50;31.10;79.30
39849;DHT22;25518;47.878;15.914;2023-07-09T17:35:41;31.40;77.20
39849;DHT22;25518;47.878;15.914;2023-07-09T17:38:34;31.10;79.80
39849;DHT22;25518;47.878;15.914;2023-07-09T17:41:25;30.70;79.60
39849;DHT22;25518;47.878;15.914;2023-07-09T17:44:17;28.80;83.00
39849;DHT22;25518;47.878;15.914;2023-07-09T17:47:15;28.10;84.70
39849;DHT22;25518;47.878;15.914;2023-07-09T17:50:13;27.80;88.30
39849;DHT22;25518;47.878;15.914;2023-07-09T17:53:08;27.30;87.10
39849;DHT22;25518;47.878;15.914;2023-07-09T17:55:59;26.90;85.80
39849;DHT22;25518;47.878;15.914;2023-07-09T17:58:48;26.60;87.70
39849;DHT22;25518;47.878;15.914;2023-07-09T18:01:38;25.90;91.10
39849;DHT22;25518;47.878;15.914;2023-07-09T18:04:30;25.70;90.80
39849;DHT22;25518;47.878;15.914;2023-07-09T18:07:25;23.30;91.70
39849;DHT22;25518;47.878;15.914;2023-07-09T18:10:16;25.60;92.30
39849;DHT22;25518;47.878;15.914;2023-07-09T18:13:10;25.40;92.60
39849;DHT22;25518;47.878;15.914;2023-07-09T18:16:02;25.20;91.90
39849;DHT22;25518;47.878;15.914;2023-07-09T18:18:51;25.00;92.30
39849;DHT22;25518;47.878;15.914;2023-07-09T18:21:41;24.40;93.30
39849;DHT22;25518;47.878;15.914;2023-07-09T18:24:30;24.80;94.40
39849;DHT22;25518;47.878;15.914;2023-07-09T18:27:23;24.50;93.90
39849;DHT22;25518;47.878;15.914;2023-07-09T18:30:17;24.30;93.90
39849;DHT22;25518;47.878;15.914;2023-07-09T18:33:09;24.20;94.00
39849;DHT22;25518;47.878;15.914;2023-07-09T18:35:59;24.10;94.20
39849;DHT22;25518;47.878;15.914;2023-07-09T18:38:49;24.00;94.50
39849;DHT22;25518;47.878;15.914;2023-07-09T18:41:39;23.70;94.40
39849;DHT22;25518;47.878;15.914;2023-07-09T18:44:29;23.60;95.60
39849;DHT22;25518;47.878;15.914;2023-07-09T18:47:19;23.50;94.90